Alpine, Utah
Current Conditions -  °F | °C
As of 5:55 AM on Saturday 01 Nov 2014 (Local Time) from KPVU Reporting Station
Clear Clear  
Wind Chill: 63°   Ceiling: Unl
Heat Index: 63°   Visibility: 10mi
Dew Point: 30°   Wind: 20mph
Humidity: 30%   Direction: 130°SE
Pressure: 29.72"   Gusts: 28mph
Location:  40.45°N, 111.78°W
Report Text: KPVU 011155Z AUTO 13017G24KT 10SM CLR 17/M01 A2972 RMK AO1 10180 20150 57020
Loading
Personal Weather Stations






























Interactive Weather Map
Tropical Storm Tracking
New forecast layout! Learn more

10-Day Weather Forecast

Advertisements
Track Severe Weather on mobile